Time;durP1;ratioP1;P1;durP2;ratioP2;P2;SDS_P1;SDS_P2;PMS_P1;PMS_P2;Temp;Humidity;BMP_temperature;BMP_pressure;BME280_temperature;BME280_humidity;BME280_pressure;Samples;Min_cycle;Max_cycle;Signal;HPM_P1;HPM_P2
2023/04/17 00:00:27;;;;;;;19.20;17.40;;;;;;;10.37;100.00;100792.94;5040960;28;20240;-76
2023/04/17 00:02:52;;;;;;;18.53;16.83;;;;;;;10.35;100.00;100797.28;5037772;28;22007;-76
2023/04/17 00:05:21;;;;;;;19.47;17.70;;;;;;;10.34;100.00;100792.97;5028092;28;20199;-76
2023/04/17 00:07:47;;;;;;;19.73;17.93;;;;;;;10.34;100.00;100789.50;5045202;28;20215;-77
2023/04/17 00:10:13;;;;;;;19.77;18.00;;;;;;;10.33;100.00;100793.81;5029467;28;20207;-76
2023/04/17 00:12:40;;;;;;;19.50;17.70;;;;;;;10.33;100.00;100788.66;5029101;28;20238;-76
2023/04/17 00:15:05;;;;;;;20.40;18.40;;;;;;;10.32;100.00;100791.22;5026537;28;20681;-76
2023/04/17 00:17:31;;;;;;;19.17;17.37;;;;;;;10.33;100.00;100785.19;5028051;28;20188;-76
2023/04/17 00:19:56;;;;;;;20.63;18.63;;;;;;;10.33;100.00;100778.31;5028959;28;20945;-74
2023/04/17 00:22:21;;;;;;;19.87;18.07;;;;;;;10.34;100.00;100781.75;5029513;28;20214;-76
2023/04/17 00:24:47;;;;;;;18.30;16.50;;;;;;;10.32;100.00;100781.75;5034678;28;20673;-74
2023/04/17 00:27:12;;;;;;;20.40;18.57;;;;;;;10.32;100.00;100786.94;5033614;28;20191;-76
2023/04/17 00:29:37;;;;;;;19.60;17.80;;;;;;;10.31;100.00;100782.63;5036868;28;20725;-76
2023/04/17 00:32:04;;;;;;;19.57;17.77;;;;;;;10.29;100.00;100778.28;5033003;28;20203;-75
2023/04/17 00:34:29;;;;;;;18.47;16.77;;;;;;;10.30;100.00;100777.41;5031524;28;20194;-76
2023/04/17 00:36:55;;;;;;;19.17;17.47;;;;;;;10.30;100.00;100774.84;5031711;28;20250;-77
2023/04/17 00:39:20;;;;;;;19.47;17.77;;;;;;;10.30;100.00;100770.53;5025105;28;20195;-76
2023/04/17 00:41:45;;;;;;;20.33;18.53;;;;;;;10.31;100.00;100774.84;5034770;28;20186;-76
2023/04/17 00:44:11;;;;;;;19.43;17.63;;;;;;;10.29;100.00;100774.00;5043841;28;20561;-77
2023/04/17 00:46:36;;;;;;;19.03;17.13;;;;;;;10.29;100.00;100771.41;5036051;28;20302;-77
2023/04/17 00:49:02;;;;;;;20.87;18.73;;;;;;;10.29;100.00;100771.41;5026159;28;20187;-76
2023/04/17 00:51:27;;;;;;;20.37;18.53;;;;;;;10.25;100.00;100771.41;5027339;28;20227;-77
2023/04/17 00:53:54;;;;;;;21.13;19.23;;;;;;;10.19;100.00;100767.94;5031311;28;20908;-76
2023/04/17 00:56:20;;;;;;;21.80;19.70;;;;;;;10.15;100.00;100765.38;5028466;28;20963;-76
2023/04/17 00:58:45;;;;;;;23.43;21.23;;;;;;;10.10;100.00;100762.78;5024643;28;20199;-76
2023/04/17 01:01:10;;;;;;;23.20;20.97;;;;;;;10.04;100.00;100763.63;5023026;28;20545;-76
2023/04/17 01:03:36;;;;;;;24.27;21.97;;;;;;;9.98;100.00;100762.78;5030141;28;20195;-76
2023/04/17 01:06:02;;;;;;;25.30;22.97;;;;;;;9.93;100.00;100762.75;5029333;28;20211;-75
2023/04/17 01:08:38;;;;;;;23.70;21.50;;;;;;;9.86;100.00;100764.47;5028317;28;20282;-76
2023/04/17 01:11:03;;;;;;;25.47;23.10;;;;;;;9.79;100.00;100764.44;5031571;28;20207;-76
2023/04/17 01:13:28;;;;;;;25.43;23.10;;;;;;;9.74;100.00;100761.84;5027577;28;20194;-77
2023/04/17 01:15:53;;;;;;;24.57;22.37;;;;;;;9.73;100.00;100762.72;5029221;28;20203;-77
2023/04/17 01:18:19;;;;;;;27.60;24.93;;;;;;;9.72;100.00;100769.63;5024265;28;20187;-77
2023/04/17 01:20:44;;;;;;;25.87;23.47;;;;;;;9.71;100.00;100760.13;5032339;28;20383;-76
2023/04/17 01:23:10;;;;;;;24.97;22.57;;;;;;;9.70;100.00;100758.41;5026843;28;20697;-77
2023/04/17 01:25:35;;;;;;;25.23;22.93;;;;;;;9.70;100.00;100758.41;5032270;28;20222;-77
2023/04/17 01:28:01;;;;;;;26.50;24.07;;;;;;;9.68;100.00;100761.88;5046092;28;20234;-76
2023/04/17 01:30:26;;;;;;;26.73;24.20;;;;;;;9.65;100.00;100764.44;5030769;28;20219;-76
2023/04/17 01:32:53;;;;;;;23.80;21.67;;;;;;;9.64;100.00;100760.13;5027231;28;20307;-76
2023/04/17 01:35:18;;;;;;;24.40;22.20;;;;;;;9.66;100.00;100761.84;5026000;28;20203;-77
2023/04/17 01:37:44;;;;;;;25.60;23.23;;;;;;;9.68;100.00;100769.63;5027661;28;20183;-76
2023/04/17 01:40:09;;;;;;;25.90;23.40;;;;;;;9.67;100.00;100767.88;5025837;28;20240;-78
2023/04/17 01:42:35;;;;;;;25.53;23.23;;;;;;;9.68;100.00;100772.19;5027292;28;20191;-77
2023/04/17 01:45:00;;;;;;;25.37;23.03;;;;;;;9.65;100.00;100765.28;5029111;28;20566;-76
2023/04/17 01:47:25;;;;;;;26.40;24.03;;;;;;;9.65;100.00;100767.00;5027075;28;20270;-75
2023/04/17 01:49:51;;;;;;;27.73;25.20;;;;;;;9.65;100.00;100764.44;5024832;28;20211;-76
2023/04/17 01:52:16;;;;;;;25.90;23.57;;;;;;;9.64;100.00;100765.28;5022622;28;20281;-76
2023/04/17 01:54:41;;;;;;;28.87;26.10;;;;;;;9.62;100.00;100770.44;5028851;28;20199;-76
2023/04/17 01:57:06;;;;;;;29.80;27.00;;;;;;;9.56;100.00;100758.38;5028988;28;20218;-77
2023/04/17 01:59:32;;;;;;;27.23;24.83;;;;;;;9.54;100.00;100761.81;5026502;28;20201;-76
2023/04/17 02:01:57;;;;;;;26.73;24.23;;;;;;;9.50;100.00;100757.47;5027919;28;20550;-76
2023/04/17 02:04:23;;;;;;;26.80;24.30;;;;;;;9.45;100.00;100760.91;5027829;28;20259;-76
2023/04/17 02:06:48;;;;;;;25.63;23.33;;;;;;;9.45;100.00;100754.91;5030776;28;20200;-77
2023/04/17 02:09:13;;;;;;;26.93;24.43;;;;;;;9.42;100.00;100763.50;5037736;28;20549;-77
2023/04/17 02:11:38;;;;;;;26.50;24.10;;;;;;;9.39;100.00;100763.50;5024010;28;20246;-76
2023/04/17 02:14:04;;;;;;;27.40;24.90;;;;;;;9.38;100.00;100758.28;5040158;28;20362;-76
2023/04/17 02:16:30;;;;;;;26.63;24.13;;;;;;;9.37;100.00;100762.63;5031303;28;20203;-78
2023/04/17 02:18:55;;;;;;;27.80;25.13;;;;;;;9.36;100.00;100760.88;5030314;28;20185;-77
2023/04/17 02:21:21;;;;;;;26.67;24.10;;;;;;;9.33;100.00;100758.28;5025875;28;20191;-76
2023/04/17 02:23:46;;;;;;;24.03;21.83;;;;;;;9.32;100.00;100759.16;5030257;28;20770;-76
2023/04/17 02:26:12;;;;;;;24.97;22.67;;;;;;;9.35;100.00;100763.47;5028363;28;20758;-77
2023/04/17 02:28:37;;;;;;;25.47;23.07;;;;;;;9.36;100.00;100763.47;5024190;28;20191;-76
2023/04/17 02:31:07;;;;;;;25.07;22.70;;;;;;;9.39;100.00;100767.78;5021723;28;20210;-77
2023/04/17 02:33:33;;;;;;;23.93;21.63;;;;;;;9.40;100.00;100770.38;5025687;28;20267;-75
2023/04/17 02:35:59;;;;;;;25.13;22.73;;;;;;;9.43;100.00;100760.06;5031122;28;20250;-76
2023/04/17 02:38:24;;;;;;;26.37;23.77;;;;;;;9.43;100.00;100766.94;5027604;28;20656;-77
2023/04/17 02:40:49;;;;;;;25.30;23.10;;;;;;;9.42;100.00;100754.88;5024579;28;20267;-76
2023/04/17 02:43:16;;;;;;;24.20;22.00;;;;;;;9.41;100.00;100758.31;5028127;28;20190;-77
2023/04/17 02:45:41;;;;;;;25.10;22.70;;;;;;;9.41;100.00;100763.47;5024423;28;20211;-76
2023/04/17 02:48:06;;;;;;;23.50;21.47;;;;;;;9.42;100.00;100766.09;5026047;28;20187;-77
2023/04/17 02:50:31;;;;;;;25.80;23.43;;;;;;;9.43;100.00;100761.78;5023849;28;20763;-76
2023/04/17 02:52:57;;;;;;;23.57;21.30;;;;;;;9.44;100.00;100768.66;5028197;28;20605;-74
2023/04/17 02:55:23;;;;;;;24.60;22.17;;;;;;;9.46;100.00;100766.97;5029554;28;20206;-77
2023/04/17 02:57:48;;;;;;;24.60;22.23;;;;;;;9.45;100.00;100770.41;5025315;28;20191;-76
2023/04/17 03:00:14;;;;;;;23.70;21.60;;;;;;;9.48;100.00;100770.41;5023818;28;20195;-76
2023/04/17 03:02:40;;;;;;;23.57;21.37;;;;;;;9.48;100.00;100762.66;5028686;28;20195;-76
2023/04/17 03:05:05;;;;;;;23.50;21.40;;;;;;;9.49;100.00;100764.38;5028166;28;20753;-77
2023/04/17 03:07:32;;;;;;;23.23;21.13;;;;;;;9.50;100.00;100768.69;5025778;28;20176;-76
2023/04/17 03:09:58;;;;;;;23.50;21.30;;;;;;;9.51;100.00;100764.38;5023977;28;20313;-75
2023/04/17 03:12:24;;;;;;;25.00;22.60;;;;;;;9.53;100.00;100763.50;5026108;28;20213;-77
2023/04/17 03:14:49;;;;;;;24.37;22.13;;;;;;;9.54;100.00;100756.66;5033728;28;20194;-76
2023/04/17 03:17:15;;;;;;;24.17;21.93;;;;;;;9.54;100.00;100761.81;5029760;28;20191;-76
2023/04/17 03:19:41;;;;;;;24.23;22.03;;;;;;;9.53;100.00;100766.09;5036126;28;20856;-75
2023/04/17 03:22:06;;;;;;;24.43;22.10;;;;;;;9.53;100.00;100762.66;5024241;28;20180;-76
2023/04/17 03:24:32;;;;;;;25.67;23.27;;;;;;;9.52;100.00;100759.22;5029597;28;20911;-77
2023/04/17 03:26:59;;;;;;;24.90;22.60;;;;;;;9.51;100.00;100761.78;5022863;28;20211;-74
2023/04/17 03:29:25;;;;;;;25.70;23.33;;;;;;;9.49;100.00;100766.09;5042826;28;20299;-76
2023/04/17 03:31:50;;;;;;;25.50;23.10;;;;;;;9.45;100.00;100762.63;5026634;28;20207;-76
2023/04/17 03:34:17;;;;;;;26.80;24.30;;;;;;;9.43;100.00;100765.22;5022400;28;20195;-77
2023/04/17 03:36:42;;;;;;;26.27;23.97;;;;;;;9.41;100.00;100766.06;5034318;28;20214;-78
2023/04/17 03:39:07;;;;;;;25.03;22.83;;;;;;;9.40;100.00;100766.91;5055996;28;20209;-78
2023/04/17 03:41:33;;;;;;;25.67;23.27;;;;;;;9.37;100.00;100772.09;5046247;28;20235;-76
2023/04/17 03:43:58;;;;;;;25.00;22.87;;;;;;;9.35;100.00;100766.06;5039179;28;20190;-76
2023/04/17 03:46:23;;;;;;;26.13;23.73;;;;;;;9.32;100.00;100772.06;5047316;28;20198;-76
2023/04/17 03:48:49;;;;;;;27.27;24.57;;;;;;;9.30;100.00;100774.66;5031570;28;20670;-76
2023/04/17 03:51:15;;;;;;;27.60;24.93;;;;;;;9.29;100.00;100778.09;5029471;28;20260;-76
2023/04/17 03:53:40;;;;;;;26.43;23.93;;;;;;;9.30;100.00;100784.13;5030691;28;20187;-76
2023/04/17 03:56:06;;;;;;;28.10;25.40;;;;;;;9.27;100.00;100777.22;5025737;28;20215;-76
2023/04/17 03:58:31;;;;;;;27.53;24.93;;;;;;;9.27;100.00;100784.09;5028070;28;20194;-77
2023/04/17 04:00:57;;;;;;;26.80;24.27;;;;;;;9.25;100.00;100776.34;5023811;28;20191;-75
2023/04/17 04:03:25;;;;;;;27.60;25.00;;;;;;;9.23;100.00;100774.63;5031373;28;20182;-77
2023/04/17 04:05:51;;;;;;;27.23;24.63;;;;;;;9.23;100.00;100779.78;5026733;28;20211;-76
2023/04/17 04:08:16;;;;;;;24.93;22.63;;;;;;;9.23;100.00;100780.63;5023011;28;20198;-77
2023/04/17 04:10:44;;;;;;;25.70;23.30;;;;;;;9.25;100.00;100773.75;5031833;28;21024;-77
2023/04/17 04:13:10;;;;;;;26.07;23.47;;;;;;;9.23;100.00;100778.03;5028120;28;20530;-76
2023/04/17 04:15:36;;;;;;;24.53;22.27;;;;;;;9.24;100.00;100778.94;5028972;28;20218;-76
2023/04/17 04:18:01;;;;;;;25.20;22.87;;;;;;;9.25;100.00;100776.34;5030529;28;20764;-76
2023/04/17 04:20:27;;;;;;;24.87;22.67;;;;;;;9.25;100.00;100784.09;5027364;28;20183;-76
2023/04/17 04:22:52;;;;;;;26.80;24.37;;;;;;;9.28;100.00;100788.41;5030993;28;20202;-76
2023/04/17 04:25:18;;;;;;;25.80;23.50;;;;;;;9.26;100.00;100790.13;5030918;28;20234;-76
2023/04/17 04:27:48;;;;;;;26.60;24.10;;;;;;;9.26;100.00;100787.53;5032187;28;20274;-75
2023/04/17 04:30:16;;;;;;;27.07;24.47;;;;;;;9.25;100.00;100793.56;5034496;28;20187;-76
2023/04/17 04:32:45;;;;;;;26.10;23.57;;;;;;;9.25;100.00;100794.41;5029786;28;20907;-75
2023/04/17 04:35:11;;;;;;;26.20;23.70;;;;;;;9.24;100.00;100784.94;5029039;28;20230;-75
2023/04/17 04:37:36;;;;;;;27.10;24.70;;;;;;;9.23;100.00;100796.13;5031940;28;20187;-76
2023/04/17 04:40:09;;;;;;;26.77;24.37;;;;;;;9.21;100.00;100790.13;5032095;28;20245;-76
2023/04/17 04:42:35;;;;;;;26.37;23.87;;;;;;;9.19;100.00;100793.53;5031226;28;22486;-76
2023/04/17 04:45:01;;;;;;;26.83;24.30;;;;;;;9.21;100.00;100799.56;5027147;28;20205;-76
2023/04/17 04:47:26;;;;;;;25.77;23.47;;;;;;;9.21;100.00;100799.56;5030936;28;20184;-77
2023/04/17 04:49:51;;;;;;;26.07;23.57;;;;;;;9.15;100.00;100797.81;5027245;28;20290;-76
2023/04/17 04:52:17;;;;;;;28.27;25.57;;;;;;;9.13;100.00;100797.81;5037005;28;20306;-75
2023/04/17 04:54:42;;;;;;;26.40;24.10;;;;;;;9.11;100.00;100801.22;5031116;28;21369;-76
2023/04/17 04:57:07;;;;;;;27.43;24.87;;;;;;;9.09;100.00;100792.59;5031622;28;20245;-76
2023/04/17 04:59:33;;;;;;;27.30;24.70;;;;;;;9.10;100.00;100804.66;5027836;28;20309;-75
2023/04/17 05:01:58;;;;;;;26.87;24.30;;;;;;;9.08;100.00;100806.38;5024949;28;20192;-75
2023/04/17 05:04:23;;;;;;;27.93;25.33;;;;;;;9.09;100.00;100808.09;5047288;28;20198;-75
2023/04/17 05:06:49;;;;;;;26.83;24.23;;;;;;;9.07;100.00;100800.34;5034671;28;20208;-77
2023/04/17 05:09:15;;;;;;;29.20;26.33;;;;;;;9.06;100.00;100808.97;5028538;28;20203;-75
2023/04/17 05:11:40;;;;;;;28.40;25.87;;;;;;;9.05;100.00;100807.22;5027534;28;20211;-77
2023/04/17 05:14:06;;;;;;;27.70;25.17;;;;;;;9.05;100.00;100812.38;5028223;28;20198;-77
2023/04/17 05:16:31;;;;;;;27.20;24.67;;;;;;;9.02;100.00;100804.63;5034152;28;20214;-76
2023/04/17 05:18:57;;;;;;;26.10;23.73;;;;;;;9.02;100.00;100807.19;5031500;28;20445;-74
2023/04/17 05:21:22;;;;;;;26.73;24.33;;;;;;;9.03;100.00;100810.66;5025030;28;20546;-75
2023/04/17 05:23:47;;;;;;;27.57;25.07;;;;;;;9.05;100.00;100809.81;5032343;28;20219;-76
2023/04/17 05:26:13;;;;;;;27.10;24.53;;;;;;;9.07;100.00;100821.00;5027441;28;20253;-76
2023/04/17 05:28:38;;;;;;;26.33;23.93;;;;;;;9.06;100.00;100816.69;5032724;28;20348;-76
2023/04/17 05:31:04;;;;;;;27.00;24.47;;;;;;;9.05;100.00;100820.13;5043135;28;20250;-76
2023/04/17 05:33:30;;;;;;;26.97;24.47;;;;;;;9.04;100.00;100813.25;5025972;28;20244;-76
2023/04/17 05:35:55;;;;;;;26.20;23.77;;;;;;;9.02;100.00;100814.94;5029969;28;20287;-76
2023/04/17 05:38:20;;;;;;;25.67;23.40;;;;;;;9.05;100.00;100821.88;5032532;28;20298;-75
2023/04/17 05:40:46;;;;;;;26.93;24.37;;;;;;;9.07;100.00;100817.59;5028873;28;20290;-75
2023/04/17 05:43:11;;;;;;;26.27;23.87;;;;;;;9.07;100.00;100821.00;5038053;28;20252;-77
2023/04/17 05:45:37;;;;;;;26.50;24.00;;;;;;;9.08;100.00;100822.75;5029647;28;20218;-75
2023/04/17 05:48:02;;;;;;;27.07;24.57;;;;;;;9.09;100.00;100821.00;5024065;28;20246;-75
2023/04/17 05:50:28;;;;;;;25.77;23.33;;;;;;;9.09;100.00;100818.44;5020591;28;21216;-76
2023/04/17 05:52:54;;;;;;;26.83;24.33;;;;;;;9.11;100.00;100816.72;5026304;28;20187;-76
2023/04/17 05:55:20;;;;;;;26.60;24.17;;;;;;;9.11;100.00;100819.31;5035743;28;20695;-76
2023/04/17 05:57:45;;;;;;;24.93;22.63;;;;;;;9.12;100.00;100818.44;5024068;28;20195;-76
2023/04/17 06:00:12;;;;;;;24.27;22.13;;;;;;;9.13;100.00;100823.66;5027878;28;20189;-76
2023/04/17 06:02:39;;;;;;;26.73;24.23;;;;;;;9.16;100.00;100822.78;5027285;28;20203;-76
2023/04/17 06:05:06;;;;;;;25.97;23.60;;;;;;;9.15;100.00;100819.31;5027379;28;20201;-77
2023/04/17 06:07:37;;;;;;;24.47;22.27;;;;;;;9.14;100.00;100824.50;5025455;28;20198;-76
2023/04/17 06:10:02;;;;;;;24.43;22.23;;;;;;;9.12;100.00;100823.63;5025242;28;20689;-76
2023/04/17 06:12:27;;;;;;;26.23;23.83;;;;;;;9.11;100.00;100821.88;5022848;28;20210;-76
2023/04/17 06:14:53;;;;;;;24.63;22.47;;;;;;;9.12;100.00;100831.38;5027437;28;20679;-75
2023/04/17 06:17:18;;;;;;;26.27;23.77;;;;;;;9.15;100.00;100833.97;5026226;28;20187;-77
2023/04/17 06:19:44;;;;;;;26.13;23.73;;;;;;;9.16;100.00;100822.78;5027173;28;20636;-76
2023/04/17 06:22:09;;;;;;;25.77;23.47;;;;;;;9.21;100.00;100834.00;5022945;28;20192;-76
2023/04/17 06:24:35;;;;;;;25.53;23.23;;;;;;;9.22;100.00;100832.28;5025031;28;20216;-77
2023/04/17 06:27:02;;;;;;;26.23;23.83;;;;;;;9.24;100.00;100833.16;5025555;28;20198;-77
2023/04/17 06:29:28;;;;;;;27.13;24.60;;;;;;;9.23;100.00;100834.00;5028485;28;20203;-77
2023/04/17 06:31:53;;;;;;;26.20;23.80;;;;;;;9.19;100.00;100832.25;5027690;28;20207;-75
2023/04/17 06:34:19;;;;;;;25.77;23.37;;;;;;;9.22;100.00;100830.59;5029365;28;20277;-75
2023/04/17 06:36:44;;;;;;;25.93;23.47;;;;;;;9.28;100.00;100833.19;5023867;28;20217;-75
2023/04/17 06:39:10;;;;;;;25.93;23.53;;;;;;;9.29;100.00;100837.50;5025746;28;20283;-78
2023/04/17 06:41:35;;;;;;;24.93;22.73;;;;;;;9.34;100.00;100828.91;5025424;28;20288;-74
2023/04/17 06:44:00;;;;;;;25.47;23.07;;;;;;;9.39;100.00;100832.34;5028733;28;20187;-72
2023/04/17 06:46:26;;;;;;;25.77;23.27;;;;;;;9.52;100.00;100828.13;5030421;28;20218;-75
2023/04/17 06:48:51;;;;;;;25.43;23.03;;;;;;;9.63;100.00;100828.16;5033749;28;20745;-75
2023/04/17 06:51:19;;;;;;;26.27;23.80;;;;;;;9.62;100.00;100840.22;5032240;28;20207;-74
2023/04/17 06:53:45;;;;;;;23.67;21.47;;;;;;;9.70;100.00;100837.66;5028182;28;20192;-79
2023/04/17 06:56:11;;;;;;;24.07;21.77;;;;;;;9.76;100.00;100841.13;5032336;28;20203;-78
2023/04/17 06:58:42;;;;;;;25.33;22.93;;;;;;;9.85;100.00;100842.03;5027629;28;20905;-75
2023/04/17 07:01:08;;;;;;;24.63;22.37;;;;;;;9.89;100.00;100848.94;5035455;28;20188;-77
2023/04/17 07:03:33;;;;;;;24.57;22.17;;;;;;;9.89;100.00;100838.59;5026591;28;20249;-76
2023/04/17 07:05:59;;;;;;;22.90;20.77;;;;;;;9.82;100.00;100845.47;5027042;28;20253;-76
2023/04/17 07:08:24;;;;;;;22.67;20.67;;;;;;;9.83;100.00;100844.59;5025680;28;20274;-76
2023/04/17 07:10:50;;;;;;;22.10;20.10;;;;;;;9.87;100.00;100850.66;5026044;28;20210;-77
2023/04/17 07:13:15;;;;;;;21.43;19.53;;;;;;;9.87;100.00;100846.31;5027541;28;20188;-75
2023/04/17 07:15:40;;;;;;;23.93;21.63;;;;;;;9.86;100.00;100861.84;5032537;28;20211;-76
2023/04/17 07:18:05;;;;;;;23.07;20.97;;;;;;;9.81;100.00;100853.19;5032047;28;20196;-75
2023/04/17 07:20:31;;;;;;;22.80;20.50;;;;;;;9.75;100.00;100854.06;5029414;28;20178;-75
2023/04/17 07:22:56;;;;;;;22.70;20.60;;;;;;;9.77;100.00;100863.53;5029739;28;20233;-74
2023/04/17 07:25:22;;;;;;;23.30;21.20;;;;;;;9.79;100.00;100855.78;5026533;28;20204;-76
2023/04/17 07:27:47;;;;;;;22.73;20.63;;;;;;;9.85;100.00;100852.38;5022984;28;20997;-76
2023/04/17 07:30:12;;;;;;;22.20;20.27;;;;;;;9.87;100.00;100851.50;5027996;28;20195;-75
2023/04/17 07:32:38;;;;;;;23.17;20.87;;;;;;;9.93;100.00;100860.16;5030615;28;20191;-75
2023/04/17 07:35:03;;;;;;;23.87;21.50;;;;;;;9.97;100.00;100857.56;5030263;28;20422;-76
2023/04/17 07:37:29;;;;;;;22.83;20.73;;;;;;;10.00;100.00;100864.44;5027961;28;20290;-75
2023/04/17 07:39:54;;;;;;;22.17;20.17;;;;;;;10.05;100.00;100862.75;5027301;28;20190;-76
2023/04/17 07:42:20;;;;;;;22.33;20.23;;;;;;;10.05;100.00;100866.22;5023753;28;20233;-75
2023/04/17 07:44:46;;;;;;;22.40;20.27;;;;;;;10.08;100.00;100865.34;5030871;28;20593;-75
2023/04/17 07:47:11;;;;;;;22.53;20.53;;;;;;;10.12;100.00;100872.28;5032759;28;20211;-76
2023/04/17 07:49:38;;;;;;;22.83;20.77;;;;;;;10.20;100.00;100867.13;5030404;28;20181;-76
2023/04/17 07:52:03;;;;;;;22.07;20.07;;;;;;;10.29;100.00;100874.00;5026636;28;20191;-75
2023/04/17 07:54:30;;;;;;;20.97;19.10;;;;;;;10.40;100.00;100876.63;5030392;28;20197;-77
2023/04/17 07:56:57;;;;;;;20.83;18.93;;;;;;;10.51;100.00;100869.78;5058586;28;20199;-76
2023/04/17 07:59:22;;;;;;;21.70;19.53;;;;;;;10.52;100.00;100874.06;5039064;28;20608;-76
2023/04/17 08:01:48;;;;;;;21.80;19.90;;;;;;;10.59;100.00;100875.81;5027980;28;20187;-76
2023/04/17 08:04:13;;;;;;;21.53;19.60;;;;;;;10.57;100.00;100871.50;5035284;28;20593;-76
2023/04/17 08:06:39;;;;;;;22.50;20.43;;;;;;;10.61;100.00;100863.72;5038468;28;20203;-76
2023/04/17 08:09:06;;;;;;;21.40;19.30;;;;;;;10.63;100.00;100881.84;5029884;28;20198;-76
2023/04/17 08:11:31;;;;;;;22.07;20.03;;;;;;;10.62;100.00;100873.22;5031732;28;20253;-75
2023/04/17 08:13:56;;;;;;;21.70;19.70;;;;;;;10.60;100.00;100872.34;5030452;28;21116;-75
2023/04/17 08:16:21;;;;;;;21.13;19.23;;;;;;;10.64;100.00;100884.44;5031284;28;21084;-76
2023/04/17 08:18:47;;;;;;;20.80;18.73;;;;;;;10.65;100.00;100882.69;5030177;28;20253;-76
2023/04/17 08:21:12;;;;;;;21.37;19.37;;;;;;;10.61;100.00;100884.44;5029500;28;20228;-76
2023/04/17 08:23:37;;;;;;;21.00;19.03;;;;;;;10.65;100.00;100886.16;5030775;28;20249;-76
2023/04/17 08:26:03;;;;;;;20.50;18.63;;;;;;;10.72;100.00;100888.75;5034307;28;20931;-76
2023/04/17 08:28:29;;;;;;;20.60;18.70;;;;;;;10.74;100.00;100880.09;5031161;28;20197;-77
2023/04/17 08:30:55;;;;;;;19.67;17.90;;;;;;;10.67;100.00;100875.81;5033169;28;20208;-76
2023/04/17 08:33:20;;;;;;;20.70;18.70;;;;;;;10.67;100.00;100887.00;5048172;28;20558;-76
2023/04/17 08:35:46;;;;;;;21.10;19.10;;;;;;;10.76;100.00;100885.31;5031759;28;20634;-75
2023/04/17 08:38:13;;;;;;;20.43;18.57;;;;;;;10.88;100.00;100890.47;5030639;28;20192;-76
2023/04/17 08:40:41;;;;;;;20.63;18.73;;;;;;;10.91;100.00;100889.59;5027409;28;20182;-76
2023/04/17 08:43:14;;;;;;;20.93;18.93;;;;;;;10.88;100.00;100877.53;5027309;28;20224;-76
2023/04/17 08:45:48;;;;;;;21.10;19.00;;;;;;;10.85;100.00;100881.84;5031470;28;20348;-75
2023/04/17 08:48:14;;;;;;;21.50;19.40;;;;;;;10.88;100.00;100879.25;5023513;28;20221;-75
2023/04/17 08:50:41;;;;;;;21.53;19.23;;;;;;;10.92;100.00;100889.63;5033747;28;20587;-76
2023/04/17 08:53:07;;;;;;;20.27;18.47;;;;;;;10.97;100.00;100887.84;5030446;28;20199;-75
2023/04/17 08:55:32;;;;;;;19.77;18.00;;;;;;;10.95;100.00;100884.44;5031720;28;20203;-76
2023/04/17 08:58:02;;;;;;;19.50;17.67;;;;;;;10.99;100.00;100882.69;5026762;28;20507;-76
2023/04/17 09:00:36;;;;;;;18.53;16.93;;;;;;;11.13;100.00;100883.53;5026300;28;20219;-76
2023/04/17 09:03:04;;;;;;;18.53;16.83;;;;;;;11.34;100.00;100888.69;5024462;28;20272;-76
2023/04/17 09:05:35;;;;;;;18.33;16.63;;;;;;;11.51;100.00;100883.44;5029986;28;20203;-76
2023/04/17 09:08:16;;;;;;;17.60;16.03;;;;;;;11.93;100.00;100884.16;5031329;28;20256;-76
2023/04/17 09:10:53;;;;;;;16.20;14.70;;;;;;;12.22;100.00;100887.47;5039682;28;20262;-76
2023/04/17 09:13:24;;;;;;;15.77;14.37;;;;;;;12.16;100.00;100880.59;5033937;28;20195;-75
2023/04/17 09:16:06;;;;;;;16.53;15.03;;;;;;;12.40;100.00;100878.72;5041297;28;20223;-77
2023/04/17 09:18:32;;;;;;;15.17;13.77;;;;;;;12.41;100.00;100880.41;5028158;28;20723;-75
2023/04/17 09:20:59;;;;;;;14.70;13.30;;;;;;;12.48;100.00;100880.34;5033225;28;20355;-79
2023/04/17 09:23:26;;;;;;;14.80;13.40;;;;;;;12.61;100.00;100888.94;5060785;28;20202;-78
2023/04/17 09:26:05;;;;;;;14.03;12.63;;;;;;;12.38;100.00;100883.06;5064843;28;20224;-77
2023/04/17 09:28:34;;;;;;;13.10;12.00;;;;;;;12.09;100.00;100886.69;5040409;28;20187;-75
2023/04/17 09:31:02;;;;;;;12.70;11.50;;;;;;;12.17;100.00;100884.91;5040802;28;20214;-76
2023/04/17 09:33:28;;;;;;;13.73;12.53;;;;;;;12.06;100.00;100887.56;5035681;28;20197;-77
2023/04/17 09:35:53;;;;;;;13.23;12.13;;;;;;;11.95;100.00;100886.72;5032217;28;20212;-76
2023/04/17 09:38:35;;;;;;;13.30;12.10;;;;;;;11.80;100.00;100888.53;5032648;28;20186;-76
2023/04/17 09:41:00;;;;;;;13.83;12.60;;;;;;;11.93;100.00;100891.06;5033275;28;20692;-75
2023/04/17 09:43:41;;;;;;;14.10;12.83;;;;;;;12.04;100.00;100884.09;5035850;28;20220;-76
2023/04/17 09:46:06;;;;;;;12.73;11.63;;;;;;;12.35;100.00;100884.78;5044129;28;20205;-75
2023/04/17 09:48:31;;;;;;;13.23;12.03;;;;;;;12.70;100.00;100887.16;5053758;28;20189;-75
2023/04/17 09:50:57;;;;;;;13.50;12.30;;;;;;;12.95;100.00;100883.44;5035730;28;20210;-75
2023/04/17 09:53:22;;;;;;;12.63;11.53;;;;;;;13.26;100.00;100885.75;5037862;28;20181;-76
2023/04/17 09:55:52;;;;;;;13.07;11.77;;;;;;;13.44;100.00;100880.38;5043027;28;20277;-76
2023/04/17 09:58:17;;;;;;;11.63;10.57;;;;;;;13.44;99.41;100881.25;5029775;28;20181;-76
2023/04/17 10:00:43;;;;;;;12.30;11.20;;;;;;;13.54;100.00;100880.28;5046202;28;20202;-76
2023/04/17 10:03:12;;;;;;;11.37;10.37;;;;;;;13.43;99.60;100878.66;5049424;28;20192;-77
2023/04/17 10:05:37;;;;;;;10.27;9.30;;;;;;;13.10;98.26;100882.44;5054971;28;20220;-76
2023/04/17 10:08:03;;;;;;;10.90;9.93;;;;;;;12.72;100.00;100883.66;5048026;28;20228;-76
2023/04/17 10:10:32;;;;;;;10.57;9.53;;;;;;;12.72;100.00;100885.38;5037461;28;20194;-75
2023/04/17 10:13:03;;;;;;;11.33;10.33;;;;;;;12.64;100.00;100877.66;5031812;28;20717;-77
2023/04/17 10:15:29;;;;;;;10.73;9.77;;;;;;;12.54;100.00;100876.88;5049534;28;20240;-76
2023/04/17 10:18:24;;;;;;;10.80;9.70;;;;;;;12.56;100.00;100879.44;5032142;28;20208;-76
2023/04/17 10:20:51;;;;;;;10.73;9.63;;;;;;;12.55;100.00;100877.72;5051400;28;20211;-76
2023/04/17 10:23:31;;;;;;;10.13;9.23;;;;;;;12.63;100.00;100884.59;5027656;28;20859;-75
2023/04/17 10:26:26;;;;;;;10.23;9.33;;;;;;;12.57;100.00;100865.59;5038504;28;21013;-77
2023/04/17 10:28:54;;;;;;;10.17;9.30;;;;;;;12.65;100.00;100868.97;5020504;28;20266;-76
2023/04/17 10:31:21;;;;;;;10.50;9.60;;;;;;;12.65;100.00;100862.06;5027140;28;20649;-76
2023/04/17 10:33:51;;;;;;;10.83;9.93;;;;;;;12.71;100.00;100866.34;5030281;28;20431;-75
2023/04/17 10:36:35;;;;;;;9.93;9.13;;;;;;;12.86;100.00;100865.34;5038414;28;20294;-76
2023/04/17 10:39:20;;;;;;;10.30;9.40;;;;;;;13.03;100.00;100860.00;5026437;28;20180;-77
2023/04/17 10:42:05;;;;;;;9.80;8.90;;;;;;;13.13;99.13;100859.88;5038039;28;20204;-76
2023/04/17 10:44:44;;;;;;;10.60;9.70;;;;;;;13.29;99.10;100852.81;5035199;28;20187;-76
2023/04/17 10:47:12;;;;;;;9.73;8.93;;;;;;;13.30;98.81;100855.38;5037898;28;20267;-76
2023/04/17 10:49:53;;;;;;;8.50;7.70;;;;;;;13.24;97.59;100853.72;5031359;28;20312;-77
2023/04/17 10:52:31;;;;;;;8.53;7.83;;;;;;;13.14;97.48;100849.50;5045870;28;20406;-77
2023/04/17 10:55:03;;;;;;;10.23;9.43;;;;;;;13.07;97.54;100853.03;5027600;28;20217;-78
2023/04/17 10:57:56;;;;;;;10.93;9.87;;;;;;;12.96;98.23;100846.22;5028860;28;20377;-78
2023/04/17 11:00:35;;;;;;;9.07;8.30;;;;;;;12.96;97.79;100850.53;5043740;28;20182;-78
2023/04/17 11:03:02;;;;;;;9.20;8.43;;;;;;;12.99;98.00;100842.72;5033595;28;20658;-76
2023/04/17 11:05:28;;;;;;;9.60;8.50;;;;;;;13.19;98.41;100839.91;5034407;28;20316;-76